Memorial Field
KHOT : rendu visible

Aérodrome :











RETROUVEZ-NOUS SUR...

 
LOGIN :

S'inscrire | Disclaimer

   EN    FR    IT 

 









Légende :    VFR   VFR Marginal   IFR   IFR Intensif   IFR Très Intensif
Visi : 
Plafond : 
>= 8 km
>= 3000ft
5 à 8 km
1000 à 3000 ft
1500m à 5 km
500 à 1000 ft
800 à 1500m
200 à 500 ft
< 800m
< 200 ft
Symboles :   Orages  Brouillard  Fortes neiges  Fortes précipitations  Vent > 20 kt






- Altitude de l'aérodrome : 540 ft
- Code IATA : HOT


KHOT - Memorial Field

DERNIER METAR :
  • 231153Z AUTO 06004KT 8SM -RA BKN008 OVC021 17/17 A2999 RMK AO2 SLP154 P0018 60062 70250 T01720167 10172 20172 56003

METARs EXPIRÉS :
  • 231123Z AUTO 08004KT 6SM -RA BR FEW006 BKN009 OVC020 17/17 A3000 RMK AO2 P0014 T01720167
  • 231053Z AUTO 05007KT 2SM +RA BR FEW004 BKN022 OVC033 17/16 A2999 RMK AO2 RAB0957 SLP151 P0038 T01720161
  • 231039Z AUTO 07007KT 2 1/2SM +RA BR FEW005 BKN026 OVC045 17/16 A2999 RMK AO2 RAB0957 P0019 T01720161
  • 231030Z AUTO 08006KT 1 3/4SM +RA BR SCT007 SCT016 OVC024 17/16 A2999 RMK AO2 RAB0957 P0011 T01720161
  • 230953Z AUTO 03003KT 4SM BR BKN006 BKN010 OVC013 17/17 A3000 RMK AO2 RAE48 SLP155 P0000 T01720167
  • 230940Z AUTO 04003KT 3SM -RA BR BKN007 OVC011 17/17 A3000 RMK AO2 P0000 T01720167
  • 230934Z AUTO 06004KT 2 1/2SM -RA BR SCT007 OVC011 17/17 A3000 RMK AO2 P0000 T01720167

TAF KHOT
Valide du 23 à 12h jusqu'au 24 à 12h UTC


231138Z 2312/2412 08006KT 4SM -SHRA BKN005 OVC010
TEMPO 2312/2316 2SM +RA BR OVC020
FM232000 06006KT 5SM BR VCSH OVC007
FM240300 08006KT 5SM BR OVC008
FIR KZME / Amérique du Nord



MET'MAP, la Météo Aéronautique d'un coup d'oeil ! - Copyright ORBIFLY Décembre 2007 - Disclaimer

ORBIFLY MET'MAP TEAM :

Programmation & Développement : Alexandra Zaïnal
Sur une idée originale de : Baudouin d'Aumeries
Assistance à la programmation : Marc-Olivier Méhu
Soutien technique & logistique : Manuel Goepfert

Contact : metmap@orbifly.com




SOURCES & CREDITS :

   NOAA       Earth
Advisory